createdAt,value
2019-03-22T00:01:30.516Z,30.72
2019-03-22T00:04:01.800Z,30.53
2019-03-22T00:06:33.100Z,31.45
2019-03-22T00:09:06.629Z,32.60
2019-03-22T00:11:37.896Z,31.52
2019-03-22T00:14:09.487Z,33.80
2019-03-22T00:16:41.674Z,32.80
2019-03-22T00:19:12.984Z,32.35
2019-03-22T00:21:44.240Z,34.33
2019-03-22T00:24:15.510Z,33.85
2019-03-22T00:26:46.843Z,34.03
2019-03-22T00:29:18.096Z,33.60
2019-03-22T00:31:49.380Z,34.13
2019-03-22T00:34:20.796Z,33.45
2019-03-22T00:36:52.135Z,32.60
2019-03-22T00:39:23.448Z,34.95
2019-03-22T00:41:54.748Z,34.08
2019-03-22T00:44:26.106Z,34.98
2019-03-22T00:46:57.385Z,34.95
2019-03-22T00:49:28.670Z,36.67
2019-03-22T00:52:00.216Z,35.90
2019-03-22T00:54:31.482Z,33.30
2019-03-22T00:57:03.226Z,32.50
2019-03-22T00:59:35.290Z,33.50
2019-03-22T01:02:07.756Z,36.13
2019-03-22T01:04:39.710Z,34.00
2019-03-22T01:07:10.994Z,33.45
2019-03-22T01:09:42.245Z,31.60
2019-03-22T01:12:13.822Z,33.33
2019-03-22T01:14:45.099Z,33.28
2019-03-22T01:17:16.669Z,33.63
2019-03-22T01:19:48.044Z,34.58
2019-03-22T01:22:19.378Z,32.83
2019-03-22T01:24:50.678Z,33.48
2019-03-22T01:27:22.859Z,33.05
2019-03-22T01:29:54.122Z,33.15
2019-03-22T01:32:25.706Z,34.20
2019-03-22T01:34:57.251Z,33.88
2019-03-22T01:37:28.523Z,32.48
2019-03-22T01:39:59.869Z,32.63
2019-03-22T01:42:31.477Z,32.42
2019-03-22T01:45:03.381Z,31.75
2019-03-22T01:47:36.012Z,32.25
2019-03-22T01:50:09.753Z,30.62
2019-03-22T01:52:41.430Z,32.23
2019-03-22T01:55:12.880Z,30.62
2019-03-22T01:57:53.136Z,29.35
2019-03-22T02:00:17.746Z,29.07
2019-03-22T02:02:49.320Z,28.75
2019-03-22T02:05:21.705Z,28.65
2019-03-22T02:07:53.045Z,27.67
2019-03-22T02:10:25.410Z,28.55
2019-03-22T02:12:56.695Z,28.50
2019-03-22T02:15:28.115Z,27.65
2019-03-22T02:17:59.380Z,27.30
2019-03-22T02:20:30.901Z,28.00
2019-03-22T02:23:02.177Z,27.50
2019-03-22T02:25:33.514Z,27.70
2019-03-22T02:28:04.883Z,27.30
2019-03-22T02:30:36.206Z,28.40
2019-03-22T02:33:07.499Z,26.82
2019-03-22T02:35:38.863Z,28.57
2019-03-22T02:38:10.923Z,27.25
2019-03-22T02:40:42.278Z,26.73
2019-03-22T02:43:13.865Z,26.82
2019-03-22T02:45:46.384Z,26.48
2019-03-22T02:48:17.824Z,27.43
2019-03-22T02:50:49.152Z,26.60
2019-03-22T02:53:20.715Z,27.02
2019-03-22T02:55:52.183Z,27.65
2019-03-22T02:58:23.519Z,26.85
2019-03-22T03:00:54.886Z,27.82
2019-03-22T03:03:26.163Z,25.90
2019-03-22T03:06:16.585Z,26.37
2019-03-22T03:08:47.900Z,25.43
2019-03-22T03:11:19.270Z,25.68
2019-03-22T03:13:50.813Z,25.57
2019-03-22T03:16:22.638Z,24.15
2019-03-22T03:18:53.973Z,25.40
2019-03-22T03:21:25.443Z,26.52
2019-03-22T03:23:56.830Z,25.77
2019-03-22T03:26:28.140Z,24.95
2019-03-22T03:28:59.498Z,24.80
2019-03-22T03:31:30.948Z,24.60
2019-03-22T03:34:02.483Z,24.45
2019-03-22T03:36:35.072Z,23.77
2019-03-22T03:39:08.574Z,23.32
2019-03-22T03:41:39.998Z,23.98
2019-03-22T03:44:11.371Z,24.05
2019-03-22T03:46:42.760Z,24.95
2019-03-22T03:49:14.108Z,23.67
2019-03-22T03:51:45.413Z,24.35
2019-03-22T03:54:16.709Z,25.75
2019-03-22T03:56:48.054Z,25.37
2019-03-22T03:59:19.399Z,24.00
2019-03-22T04:01:50.708Z,24.50
2019-03-22T04:04:22.606Z,24.40
2019-03-22T04:06:54.034Z,23.35
2019-03-22T04:09:25.426Z,24.35
2019-03-22T04:11:56.814Z,24.85
2019-03-22T04:14:28.208Z,25.70
2019-03-22T04:16:59.573Z,24.72
2019-03-22T04:19:30.859Z,23.80
2019-03-22T04:22:02.533Z,24.77
2019-03-22T04:24:34.796Z,24.37
2019-03-22T04:27:06.158Z,25.05
2019-03-22T04:29:37.499Z,24.63
2019-03-22T04:32:08.955Z,23.83
2019-03-22T04:34:40.361Z,24.77
2019-03-22T04:37:11.723Z,23.85
2019-03-22T04:39:43.110Z,24.05
2019-03-22T04:42:14.530Z,24.63
2019-03-22T04:44:45.968Z,24.82
2019-03-22T04:47:20.683Z,23.95
2019-03-22T04:49:53.614Z,23.33
2019-03-22T04:52:26.099Z,24.43
2019-03-22T04:55:00.990Z,24.18
2019-03-22T04:57:35.014Z,24.45
2019-03-22T05:00:07.699Z,24.80
2019-03-22T05:02:40.873Z,24.72
2019-03-22T05:05:13.871Z,25.55
2019-03-22T05:07:45.926Z,27.07
2019-03-22T05:10:18.346Z,27.62
2019-03-22T05:12:51.185Z,25.82
2019-03-22T05:15:24.202Z,25.23
2019-03-22T05:17:56.790Z,25.67
2019-03-22T05:20:28.735Z,24.85
2019-03-22T05:23:00.791Z,25.60
2019-03-22T05:25:32.771Z,25.92
2019-03-22T05:28:06.011Z,24.10
2019-03-22T05:31:11.843Z,24.80
2019-03-22T05:33:43.121Z,23.73
2019-03-22T05:36:14.529Z,24.35
2019-03-22T05:38:46.186Z,25.53
2019-03-22T05:41:23.381Z,24.40
2019-03-22T05:43:54.955Z,25.35
2019-03-22T05:46:26.221Z,25.85
2019-03-22T05:48:57.509Z,24.80
2019-03-22T05:51:28.925Z,27.00
2019-03-22T05:54:00.249Z,27.52
2019-03-22T05:56:31.621Z,24.27
2019-03-22T05:59:02.950Z,24.67
2019-03-22T06:01:34.419Z,26.17
2019-03-22T06:04:05.946Z,25.37
2019-03-22T06:06:37.444Z,25.62
2019-03-22T06:09:09.623Z,24.92
2019-03-22T06:11:40.923Z,24.60
2019-03-22T06:14:12.282Z,24.80
2019-03-22T06:16:43.616Z,23.42
2019-03-22T06:19:16.001Z,24.30
2019-03-22T06:21:47.460Z,24.95
2019-03-22T06:24:18.774Z,24.80
2019-03-22T06:26:50.092Z,24.02
2019-03-22T06:29:21.387Z,24.27
2019-03-22T06:31:52.768Z,23.45
2019-03-22T06:34:24.317Z,24.67
2019-03-22T06:36:55.623Z,24.15
2019-03-22T06:39:26.940Z,23.67
2019-03-22T06:41:58.359Z,23.20
2019-03-22T06:44:30.197Z,22.90
2019-03-22T06:47:01.635Z,23.77
2019-03-22T06:49:32.946Z,22.63
2019-03-22T06:52:04.421Z,22.32
2019-03-22T06:54:35.704Z,23.30
2019-03-22T06:57:07.351Z,23.07
2019-03-22T06:59:38.984Z,22.23
2019-03-22T07:02:10.462Z,22.62
2019-03-22T07:04:41.786Z,21.75
2019-03-22T07:07:13.096Z,22.02
2019-03-22T07:09:44.390Z,21.62
2019-03-22T07:12:15.701Z,22.25
2019-03-22T07:14:47.153Z,21.62
2019-03-22T07:17:18.513Z,20.82
2019-03-22T07:19:49.974Z,20.20
2019-03-22T07:22:21.253Z,19.47
2019-03-22T07:24:53.093Z,20.20
2019-03-22T07:27:24.412Z,19.42
2019-03-22T07:29:55.741Z,19.67
2019-03-22T07:32:27.158Z,19.12
2019-03-22T07:34:58.509Z,18.30
2019-03-22T07:37:30.151Z,18.17
2019-03-22T07:40:01.469Z,18.70
2019-03-22T07:42:33.094Z,18.30
2019-03-22T07:45:05.580Z,18.43
2019-03-22T07:47:36.899Z,17.25
2019-03-22T07:50:08.509Z,18.00
2019-03-22T07:52:41.063Z,18.27
2019-03-22T07:55:12.449Z,17.53
2019-03-22T07:57:43.861Z,17.65
2019-03-22T08:00:15.238Z,17.52
2019-03-22T08:02:46.561Z,17.57
2019-03-22T08:05:17.871Z,17.25
2019-03-22T08:07:49.248Z,16.87
2019-03-22T08:10:20.666Z,16.62
2019-03-22T08:12:52.189Z,15.78
2019-03-22T08:15:31.499Z,16.55
2019-03-22T08:18:02.929Z,16.80
2019-03-22T08:20:34.311Z,16.17
2019-03-22T08:23:17.540Z,16.57
2019-03-22T08:25:48.968Z,15.72
2019-03-22T08:28:20.335Z,15.88
2019-03-22T08:30:59.390Z,15.60
2019-03-22T08:33:30.995Z,16.00
2019-03-22T08:36:02.318Z,14.98
2019-03-22T08:38:33.702Z,15.48
2019-03-22T08:41:05.157Z,15.25
2019-03-22T08:43:36.517Z,15.83
2019-03-22T08:46:07.928Z,15.40
2019-03-22T08:48:39.628Z,14.78
2019-03-22T08:51:11.357Z,15.32
2019-03-22T08:53:54.771Z,14.68
2019-03-22T08:56:15.725Z,15.03
2019-03-22T08:58:47.394Z,14.45
2019-03-22T09:01:18.709Z,14.98
2019-03-22T09:03:50.125Z,14.30
2019-03-22T09:06:21.468Z,13.88
2019-03-22T09:08:52.874Z,12.85
2019-03-22T09:11:24.219Z,13.05
2019-03-22T09:13:56.040Z,13.13
2019-03-22T09:16:30.641Z,12.50
2019-03-22T09:19:00.786Z,13.03
2019-03-22T09:21:32.137Z,13.18
2019-03-22T09:24:03.659Z,12.78
2019-03-22T09:26:46.837Z,12.53
2019-03-22T09:29:07.992Z,12.10
2019-03-22T09:31:39.373Z,12.58
2019-03-22T09:34:10.742Z,11.38
2019-03-22T09:36:42.068Z,12.28
2019-03-22T09:39:13.542Z,11.68
2019-03-22T09:41:44.896Z,11.43
2019-03-22T09:44:16.378Z,11.03
2019-03-22T09:46:47.724Z,10.78
2019-03-22T09:49:19.035Z,10.08
2019-03-22T09:51:50.382Z,11.00
2019-03-22T09:54:22.006Z,10.55
2019-03-22T09:56:53.411Z,9.77
2019-03-22T09:59:24.820Z,9.60
2019-03-22T10:01:56.190Z,10.10
2019-03-22T10:04:27.874Z,10.18
2019-03-22T10:06:59.267Z,10.27
2019-03-22T10:09:30.681Z,10.10
2019-03-22T10:12:02.028Z,10.35
2019-03-22T10:14:33.410Z,11.03
2019-03-22T10:17:04.947Z,11.20
2019-03-22T10:19:36.325Z,10.90
2019-03-22T10:22:07.932Z,11.38
2019-03-22T10:24:39.437Z,11.40
2019-03-22T10:27:10.813Z,11.15
2019-03-22T10:29:42.183Z,11.17
2019-03-22T10:32:13.553Z,11.70
2019-03-22T10:34:44.992Z,11.77
2019-03-22T10:37:16.715Z,12.97
2019-03-22T10:39:48.421Z,12.93
2019-03-22T10:42:20.139Z,12.18
2019-03-22T10:44:51.464Z,12.78
2019-03-22T10:47:22.788Z,12.85
2019-03-22T10:49:55.289Z,12.13
2019-03-22T10:52:26.655Z,12.63
2019-03-22T10:54:58.042Z,11.88
2019-03-22T10:57:29.398Z,11.12
2019-03-22T11:00:00.759Z,11.00
2019-03-22T11:02:32.244Z,10.90
2019-03-22T11:05:03.698Z,10.18
2019-03-22T11:07:35.059Z,10.53
2019-03-22T11:10:10.812Z,10.55
2019-03-22T11:12:42.124Z,10.72
2019-03-22T11:15:14.324Z,11.15
2019-03-22T11:17:45.935Z,11.40
2019-03-22T11:20:18.040Z,11.50
2019-03-22T11:22:49.366Z,10.88
2019-03-22T11:25:20.679Z,10.50
2019-03-22T11:27:51.975Z,10.95
2019-03-22T11:30:23.559Z,10.88
2019-03-22T11:32:54.943Z,11.40
2019-03-22T11:35:26.408Z,11.12
2019-03-22T11:37:57.999Z,11.28
2019-03-22T11:40:29.397Z,10.00
2019-03-22T11:43:08.176Z,10.70
2019-03-22T11:45:33.755Z,10.35
2019-03-22T11:48:05.273Z,10.32
2019-03-22T11:50:36.659Z,9.80
2019-03-22T11:53:07.977Z,10.05
2019-03-22T11:55:39.314Z,9.63
2019-03-22T11:58:10.639Z,9.98
2019-03-22T12:00:41.999Z,9.40
2019-03-22T12:03:13.354Z,9.25
2019-03-22T12:05:44.779Z,9.95
2019-03-22T12:08:16.140Z,9.40
2019-03-22T12:10:47.452Z,9.40
2019-03-22T12:13:18.707Z,9.50
2019-03-22T12:15:50.065Z,9.45
2019-03-22T12:18:21.340Z,9.03
2019-03-22T12:20:53.779Z,8.55
2019-03-22T12:23:25.309Z,8.30
2019-03-22T12:25:56.666Z,8.45
2019-03-22T12:28:28.003Z,8.93
2019-03-22T12:30:59.378Z,8.60
2019-03-22T12:33:31.052Z,8.45
2019-03-22T12:36:02.351Z,8.23
2019-03-22T12:38:33.678Z,8.30
2019-03-22T12:41:05.320Z,8.30
2019-03-22T12:43:36.604Z,8.50
2019-03-22T12:46:08.046Z,7.83
2019-03-22T12:48:39.371Z,7.97
2019-03-22T12:51:11.040Z,7.35
2019-03-22T12:53:42.380Z,7.10
2019-03-22T12:56:13.949Z,6.78
2019-03-22T12:58:45.528Z,6.97
2019-03-22T13:01:16.915Z,6.07
2019-03-22T13:03:48.199Z,5.90
2019-03-22T13:06:19.976Z,5.93
2019-03-22T13:08:51.249Z,5.80
2019-03-22T13:11:22.565Z,5.25
2019-03-22T13:13:53.929Z,4.90
2019-03-22T13:16:25.524Z,4.25
2019-03-22T13:18:56.802Z,3.90
2019-03-22T13:21:29.147Z,3.72
2019-03-22T13:24:00.407Z,3.47
2019-03-22T13:26:31.713Z,3.50
2019-03-22T13:29:03.299Z,3.40
2019-03-22T13:31:34.614Z,3.50
2019-03-22T13:34:06.008Z,3.05
2019-03-22T13:36:37.384Z,2.80
2019-03-22T13:39:09.717Z,2.80
2019-03-22T13:41:40.975Z,3.10
2019-03-22T13:44:12.473Z,3.27
2019-03-22T13:46:43.764Z,3.55
2019-03-22T13:49:15.179Z,3.33
2019-03-22T13:51:46.856Z,3.90
2019-03-22T13:54:18.454Z,3.65
2019-03-22T13:56:49.938Z,3.40
2019-03-22T13:59:21.222Z,3.62
2019-03-22T14:01:52.588Z,3.15
2019-03-22T14:04:23.860Z,3.20
2019-03-22T14:06:55.432Z,3.17
2019-03-22T14:09:26.713Z,3.00
2019-03-22T14:11:58.008Z,2.60
2019-03-22T14:14:29.327Z,2.67
2019-03-22T14:17:00.618Z,2.80
2019-03-22T14:19:31.939Z,2.40
2019-03-22T14:22:03.262Z,2.77
2019-03-22T14:24:34.566Z,2.50
2019-03-22T14:27:06.115Z,2.27
2019-03-22T14:29:37.472Z,2.42
2019-03-22T14:32:08.777Z,2.70
2019-03-22T14:34:41.069Z,2.60
2019-03-22T14:37:12.363Z,2.42
2019-03-22T14:39:43.721Z,2.65
2019-03-22T14:42:15.042Z,2.30
2019-03-22T14:44:46.531Z,2.35
2019-03-22T14:47:17.875Z,2.10
2019-03-22T14:49:49.182Z,2.40
2019-03-22T14:52:20.521Z,2.00
2019-03-22T14:54:52.793Z,1.90
2019-03-22T14:57:24.064Z,1.80
2019-03-22T14:59:59.219Z,1.80
2019-03-22T15:02:28.290Z,1.90
2019-03-22T15:04:59.587Z,1.95
2019-03-22T15:07:31.005Z,1.80
2019-03-22T15:10:02.439Z,1.98
2019-03-22T15:12:33.759Z,1.60
2019-03-22T15:15:12.086Z,1.80
2019-03-22T15:18:07.358Z,1.90
2019-03-22T15:20:56.445Z,1.67
2019-03-22T15:23:45.601Z,1.45
2019-03-22T15:26:42.436Z,1.70
2019-03-22T15:29:35.594Z,1.80
2019-03-22T15:32:24.679Z,1.60
2019-03-22T15:35:14.098Z,1.90
2019-03-22T15:38:03.576Z,1.60
2019-03-22T15:40:34.951Z,1.70
2019-03-22T15:43:06.404Z,1.67
2019-03-22T15:45:37.759Z,1.60
2019-03-22T15:48:09.082Z,1.60
2019-03-22T15:50:40.482Z,1.60
2019-03-22T15:53:11.800Z,1.62
2019-03-22T15:55:43.163Z,1.77
2019-03-22T15:58:14.750Z,1.92
2019-03-22T16:00:46.202Z,1.98
2019-03-22T16:03:17.588Z,1.90
2019-03-22T16:05:48.896Z,2.02
2019-03-22T16:08:20.322Z,1.92
2019-03-22T16:10:51.749Z,2.33
2019-03-22T16:13:23.040Z,2.20
2019-03-22T16:15:54.308Z,2.00
2019-03-22T16:18:26.635Z,1.95
2019-03-22T16:21:00.085Z,2.17
2019-03-22T16:23:31.088Z,1.90
2019-03-22T16:26:02.372Z,2.20
2019-03-22T16:28:33.755Z,2.40
2019-03-22T16:31:06.007Z,2.02
2019-03-22T16:33:37.585Z,2.22
2019-03-22T16:36:08.844Z,2.30
2019-03-22T16:38:40.204Z,2.40
2019-03-22T16:41:11.482Z,2.45
2019-03-22T16:43:42.829Z,2.55
2019-03-22T16:46:14.329Z,2.80
2019-03-22T16:48:45.771Z,2.90
2019-03-22T16:51:17.131Z,2.87
2019-03-22T16:53:48.419Z,2.98
2019-03-22T16:56:19.721Z,2.67
2019-03-22T16:58:51.048Z,3.08
2019-03-22T17:01:22.474Z,3.05
2019-03-22T17:03:53.805Z,3.17
2019-03-22T17:06:25.086Z,3.08
2019-03-22T17:08:56.369Z,3.10
2019-03-22T17:11:27.687Z,3.27
2019-03-22T17:13:59.376Z,3.35
2019-03-22T17:16:30.659Z,3.30
2019-03-22T17:19:02.041Z,3.00
2019-03-22T17:21:33.315Z,3.30
2019-03-22T17:24:05.217Z,3.00
2019-03-22T17:26:36.523Z,3.20
2019-03-22T17:29:07.818Z,3.43
2019-03-22T17:31:39.538Z,3.30
2019-03-22T17:34:14.549Z,3.35
2019-03-22T17:36:44.088Z,3.70
2019-03-22T17:39:17.346Z,3.47
2019-03-22T17:41:49.097Z,3.58
2019-03-22T17:44:20.373Z,4.30
2019-03-22T17:46:51.875Z,3.80
2019-03-22T17:49:23.583Z,4.20
2019-03-22T17:51:54.845Z,4.10
2019-03-22T17:54:26.436Z,3.87
2019-03-22T17:56:57.710Z,4.12
2019-03-22T17:59:29.313Z,4.35
2019-03-22T18:02:00.618Z,5.08
2019-03-22T18:04:32.721Z,5.05
2019-03-22T18:07:04.064Z,5.95
2019-03-22T18:09:37.305Z,6.35
2019-03-22T18:12:08.586Z,5.20
2019-03-22T18:14:40.167Z,5.00
2019-03-22T18:17:11.733Z,4.22
2019-03-22T18:19:43.063Z,4.70
2019-03-22T18:22:14.350Z,5.40
2019-03-22T18:24:45.998Z,6.60
2019-03-22T18:27:18.107Z,6.50
2019-03-22T18:29:49.398Z,6.30
2019-03-22T18:32:20.649Z,6.43
2019-03-22T18:34:51.902Z,6.75
2019-03-22T18:37:23.162Z,6.35
2019-03-22T18:39:54.848Z,6.28
2019-03-22T18:42:26.225Z,5.67
2019-03-22T18:44:57.477Z,4.60
2019-03-22T18:47:28.747Z,5.03
2019-03-22T18:50:00.631Z,5.60
2019-03-22T18:52:31.930Z,5.60
2019-03-22T18:55:03.289Z,4.87
2019-03-22T18:57:34.517Z,5.10
2019-03-22T19:00:07.109Z,4.90
2019-03-22T19:02:38.557Z,4.78
2019-03-22T19:05:11.054Z,5.12
2019-03-22T19:07:42.289Z,5.33
2019-03-22T19:10:13.954Z,5.50
2019-03-22T19:12:45.537Z,5.40
2019-03-22T19:15:17.514Z,5.50
2019-03-22T19:17:48.782Z,5.78
2019-03-22T19:20:20.165Z,5.75
2019-03-22T19:22:51.716Z,5.15
2019-03-22T19:25:23.027Z,5.72
2019-03-22T19:27:54.333Z,5.72
2019-03-22T19:30:25.593Z,5.87
2019-03-22T19:32:56.867Z,5.72
2019-03-22T19:35:28.414Z,6.07
2019-03-22T19:38:00.082Z,6.30
2019-03-22T19:40:31.580Z,5.70
2019-03-22T19:43:04.290Z,5.90
2019-03-22T19:45:35.620Z,6.22
2019-03-22T19:48:07.376Z,6.10
2019-03-22T19:50:39.005Z,5.97
2019-03-22T19:53:10.259Z,6.37
2019-03-22T19:55:41.807Z,6.03
2019-03-22T19:58:13.430Z,6.05
2019-03-22T20:00:44.809Z,5.80
2019-03-22T20:03:16.118Z,5.12
2019-03-22T20:05:47.548Z,4.97
2019-03-22T20:08:19.590Z,5.03
2019-03-22T20:10:50.854Z,5.30
2019-03-22T20:13:22.285Z,5.60
2019-03-22T20:15:53.646Z,4.92
2019-03-22T20:18:24.969Z,5.40
2019-03-22T20:20:56.364Z,5.28
2019-03-22T20:23:28.029Z,5.87
2019-03-22T20:25:59.555Z,5.40
2019-03-22T20:28:30.903Z,5.37
2019-03-22T20:31:03.108Z,5.00
2019-03-22T20:33:34.426Z,5.37
2019-03-22T20:36:05.801Z,5.00
2019-03-22T20:38:37.052Z,5.10
2019-03-22T20:41:08.643Z,5.25
2019-03-22T20:43:39.946Z,5.47
2019-03-22T20:46:11.272Z,5.35
2019-03-22T20:48:42.548Z,5.45
2019-03-22T20:51:13.906Z,5.30
2019-03-22T20:53:45.157Z,6.00
2019-03-22T20:56:16.796Z,6.10
2019-03-22T20:58:48.190Z,5.80
2019-03-22T21:01:20.501Z,5.33
2019-03-22T21:03:51.810Z,5.90
2019-03-22T21:06:23.467Z,5.70
2019-03-22T21:08:54.760Z,5.47
2019-03-22T21:11:26.109Z,5.40
2019-03-22T21:13:57.393Z,5.72
2019-03-22T21:16:29.971Z,6.15
2019-03-22T21:19:01.621Z,6.03
2019-03-22T21:21:36.694Z,6.03
2019-03-22T21:24:06.180Z,6.22
2019-03-22T21:26:37.464Z,5.78
2019-03-22T21:29:08.746Z,5.92
2019-03-22T21:31:40.115Z,6.33
2019-03-22T21:34:12.220Z,6.05
2019-03-22T21:36:43.579Z,5.83
2019-03-22T21:39:16.226Z,5.75
2019-03-22T21:41:47.487Z,5.40
2019-03-22T21:44:19.256Z,6.00
2019-03-22T21:47:02.376Z,5.75
2019-03-22T21:49:33.639Z,6.08
2019-03-22T21:52:05.986Z,6.08
2019-03-22T21:54:37.267Z,5.70
2019-03-22T21:57:08.510Z,6.92
2019-03-22T21:59:40.906Z,5.92
2019-03-22T22:02:13.030Z,6.12
2019-03-22T22:04:44.664Z,6.28
2019-03-22T22:07:15.950Z,6.30
2019-03-22T22:09:47.250Z,6.10
2019-03-22T22:12:24.522Z,6.04
2019-03-22T22:14:56.078Z,5.80
2019-03-22T22:17:27.607Z,6.53
2019-03-22T22:19:58.887Z,6.00
2019-03-22T22:22:30.166Z,6.40
2019-03-22T22:25:01.795Z,6.30
2019-03-22T22:27:34.116Z,6.28
2019-03-22T22:30:05.990Z,6.37
2019-03-22T22:32:37.249Z,6.33
2019-03-22T22:35:09.314Z,6.63
2019-03-22T22:37:40.702Z,6.70
2019-03-22T22:40:12.122Z,6.37
2019-03-22T22:42:43.411Z,6.60
2019-03-22T22:45:14.902Z,6.90
2019-03-22T22:47:46.289Z,6.92
2019-03-22T22:50:17.546Z,6.55
2019-03-22T22:52:49.079Z,6.30
2019-03-22T22:55:20.363Z,6.28
2019-03-22T22:57:51.989Z,7.00
2019-03-22T23:00:25.209Z,7.40
2019-03-22T23:02:58.165Z,7.50
2019-03-22T23:05:29.531Z,8.00
2019-03-22T23:08:00.863Z,8.20
2019-03-22T23:10:32.114Z,7.80
2019-03-22T23:13:03.465Z,9.25
2019-03-22T23:15:35.183Z,9.05
2019-03-22T23:18:06.557Z,9.58
2019-03-22T23:20:37.853Z,10.25
2019-03-22T23:23:10.205Z,9.63
2019-03-22T23:25:42.454Z,10.50
2019-03-22T23:28:13.757Z,10.35
2019-03-22T23:30:45.272Z,10.70
2019-03-22T23:33:16.563Z,11.55
2019-03-22T23:35:47.950Z,11.48
2019-03-22T23:38:19.226Z,10.93
2019-03-22T23:40:50.494Z,11.53
2019-03-22T23:43:22.110Z,13.13
2019-03-22T23:45:53.447Z,14.37
2019-03-22T23:48:24.737Z,19.00
2019-03-22T23:50:56.301Z,21.02
2019-03-22T23:53:27.662Z,24.63
2019-03-22T23:55:59.970Z,26.87
2019-03-22T23:58:31.281Z,29.20
